sensor_id;sensor_type;location;lat;lon;timestamp;pressure;altitude;pressure_sealevel;temperature;humidity
15817;BME280;8009;50.070;8.232;2023-03-22T00:00:56;99765.84;;;8.00;88.09
15817;BME280;8009;50.070;8.232;2023-03-22T00:03:25;99776.66;;;8.13;87.72
15817;BME280;8009;50.070;8.232;2023-03-22T00:05:56;99767.88;;;7.84;88.65
15817;BME280;8009;50.070;8.232;2023-03-22T00:08:24;99774.72;;;8.28;86.99
15817;BME280;8009;50.070;8.232;2023-03-22T00:10:53;99772.75;;;8.04;86.92
15817;BME280;8009;50.070;8.232;2023-03-22T00:13:24;99780.56;;;7.55;90.38
15817;BME280;8009;50.070;8.232;2023-03-22T00:15:54;99769.31;;;8.02;88.98
15817;BME280;8009;50.070;8.232;2023-03-22T00:18:24;99768.91;;;8.21;87.85
15817;BME280;8009;50.070;8.232;2023-03-22T00:20:54;99773.53;;;8.32;86.66
15817;BME280;8009;50.070;8.232;2023-03-22T00:23:24;99767.06;;;8.22;87.77
15817;BME280;8009;50.070;8.232;2023-03-22T00:25:52;99760.84;;;8.21;87.51
15817;BME280;8009;50.070;8.232;2023-03-22T00:28:24;99763.19;;;8.13;87.17
15817;BME280;8009;50.070;8.232;2023-03-22T00:30:53;99764.13;;;7.99;88.01
15817;BME280;8009;50.070;8.232;2023-03-22T00:33:22;99757.75;;;8.40;86.76
15817;BME280;8009;50.070;8.232;2023-03-22T00:35:52;99757.28;;;8.34;86.74
15817;BME280;8009;50.070;8.232;2023-03-22T00:38:21;99749.69;;;8.40;86.35
15817;BME280;8009;50.070;8.232;2023-03-22T00:40:49;99750.97;;;8.47;86.12
15817;BME280;8009;50.070;8.232;2023-03-22T00:43:18;99758.88;;;8.23;87.22
15817;BME280;8009;50.070;8.232;2023-03-22T00:45:48;99751.75;;;7.97;88.90
15817;BME280;8009;50.070;8.232;2023-03-22T00:48:17;99752.88;;;8.33;87.06
15817;BME280;8009;50.070;8.232;2023-03-22T00:50:45;99747.94;;;8.39;86.09
15817;BME280;8009;50.070;8.232;2023-03-22T00:53:13;99746.38;;;7.97;87.44
15817;BME280;8009;50.070;8.232;2023-03-22T00:55:42;99738.13;;;8.25;86.19
15817;BME280;8009;50.070;8.232;2023-03-22T00:58:10;99733.19;;;8.32;85.84
15817;BME280;8009;50.070;8.232;2023-03-22T01:00:38;99730.28;;;8.10;86.51
15817;BME280;8009;50.070;8.232;2023-03-22T01:03:11;99735.47;;;8.38;85.55
15817;BME280;8009;50.070;8.232;2023-03-22T01:05:40;99738.34;;;8.10;86.50
15817;BME280;8009;50.070;8.232;2023-03-22T01:08:09;99734.47;;;8.26;86.13
15817;BME280;8009;50.070;8.232;2023-03-22T01:10:40;99733.28;;;8.30;85.91
15817;BME280;8009;50.070;8.232;2023-03-22T01:13:10;99728.03;;;8.42;85.52
15817;BME280;8009;50.070;8.232;2023-03-22T01:15:38;99727.59;;;8.10;87.34
15817;BME280;8009;50.070;8.232;2023-03-22T01:18:07;99727.47;;;8.37;85.98
15817;BME280;8009;50.070;8.232;2023-03-22T01:20:38;99727.06;;;8.56;85.21
15817;BME280;8009;50.070;8.232;2023-03-22T01:23:06;99722.78;;;8.40;86.33
15817;BME280;8009;50.070;8.232;2023-03-22T01:25:34;99727.94;;;8.43;85.40
15817;BME280;8009;50.070;8.232;2023-03-22T01:28:03;99714.03;;;8.37;85.58
15817;BME280;8009;50.070;8.232;2023-03-22T01:30:33;99715.00;;;8.48;85.37
15817;BME280;8009;50.070;8.232;2023-03-22T01:33:01;99713.38;;;8.59;84.84
15817;BME280;8009;50.070;8.232;2023-03-22T01:35:30;99709.59;;;8.61;84.63
15817;BME280;8009;50.070;8.232;2023-03-22T01:38:01;99711.00;;;8.67;83.81
15817;BME280;8009;50.070;8.232;2023-03-22T01:40:29;99704.00;;;8.64;83.66
15817;BME280;8009;50.070;8.232;2023-03-22T01:42:57;99707.28;;;8.44;84.64
15817;BME280;8009;50.070;8.232;2023-03-22T01:45:32;99707.22;;;8.31;85.16
15817;BME280;8009;50.070;8.232;2023-03-22T01:48:06;99697.97;;;8.35;84.69
15817;BME280;8009;50.070;8.232;2023-03-22T01:50:36;99706.28;;;8.32;84.68
15817;BME280;8009;50.070;8.232;2023-03-22T01:53:10;99703.78;;;8.16;85.36
15817;BME280;8009;50.070;8.232;2023-03-22T01:55:44;99700.03;;;8.19;86.00
15817;BME280;8009;50.070;8.232;2023-03-22T01:58:13;99704.44;;;8.33;85.20
15817;BME280;8009;50.070;8.232;2023-03-22T02:00:43;99696.38;;;8.33;85.16
15817;BME280;8009;50.070;8.232;2023-03-22T02:03:16;99693.91;;;8.42;84.48
15817;BME280;8009;50.070;8.232;2023-03-22T02:05:46;99686.19;;;8.38;84.24
15817;BME280;8009;50.070;8.232;2023-03-22T02:08:17;99687.22;;;8.35;84.26
15817;BME280;8009;50.070;8.232;2023-03-22T02:10:46;99687.66;;;8.29;84.50
15817;BME280;8009;50.070;8.232;2023-03-22T02:13:29;99683.03;;;7.67;87.45
15817;BME280;8009;50.070;8.232;2023-03-22T02:16:11;99683.84;;;7.42;88.50
15817;BME280;8009;50.070;8.232;2023-03-22T02:18:53;99683.03;;;7.93;86.78
15817;BME280;8009;50.070;8.232;2023-03-22T02:21:51;99687.56;;;7.79;87.02
15817;BME280;8009;50.070;8.232;2023-03-22T02:24:48;99675.31;;;7.75;86.98
15817;BME280;8009;50.070;8.232;2023-03-22T02:27:34;99675.19;;;7.90;85.97
15817;BME280;8009;50.070;8.232;2023-03-22T02:30:32;99676.53;;;7.44;87.32
15817;BME280;8009;50.070;8.232;2023-03-22T02:36:27;99675.13;;;7.39;87.73
15817;BME280;8009;50.070;8.232;2023-03-22T02:39:25;99681.91;;;7.44;87.26
15817;BME280;8009;50.070;8.232;2023-03-22T02:42:08;99682.25;;;7.52;86.64
15817;BME280;8009;50.070;8.232;2023-03-22T02:44:41;99681.84;;;7.71;86.19
15817;BME280;8009;50.070;8.232;2023-03-22T02:47:17;99688.94;;;7.72;85.68
15817;BME280;8009;50.070;8.232;2023-03-22T02:49:53;99682.78;;;7.57;85.71
15817;BME280;8009;50.070;8.232;2023-03-22T02:52:29;99672.44;;;7.51;86.41
15817;BME280;8009;50.070;8.232;2023-03-22T02:55:05;99668.31;;;7.60;85.82
15817;BME280;8009;50.070;8.232;2023-03-22T02:57:42;99674.22;;;7.65;86.00
15817;BME280;8009;50.070;8.232;2023-03-22T03:00:14;99676.59;;;7.82;85.24
15817;BME280;8009;50.070;8.232;2023-03-22T03:02:48;99664.75;;;7.85;84.87
15817;BME280;8009;50.070;8.232;2023-03-22T03:05:18;99655.28;;;7.92;84.64
15817;BME280;8009;50.070;8.232;2023-03-22T03:07:50;99655.09;;;7.82;84.69
15817;BME280;8009;50.070;8.232;2023-03-22T03:10:22;99669.72;;;7.78;85.04
15817;BME280;8009;50.070;8.232;2023-03-22T03:12:51;99668.63;;;7.81;84.76
15817;BME280;8009;50.070;8.232;2023-03-22T03:15:22;99663.41;;;7.40;85.64
15817;BME280;8009;50.070;8.232;2023-03-22T03:18:04;99666.75;;;7.03;88.33
15817;BME280;8009;50.070;8.232;2023-03-22T03:20:45;99667.91;;;6.99;88.64
15817;BME280;8009;50.070;8.232;2023-03-22T03:23:25;99673.94;;;7.03;88.14
15817;BME280;8009;50.070;8.232;2023-03-22T03:26:02;99655.78;;;7.46;85.98
15817;BME280;8009;50.070;8.232;2023-03-22T03:28:35;99659.94;;;6.71;88.57
15817;BME280;8009;50.070;8.232;2023-03-22T03:31:17;99653.28;;;7.18;86.90
15817;BME280;8009;50.070;8.232;2023-03-22T03:33:58;99647.00;;;7.44;85.59
15817;BME280;8009;50.070;8.232;2023-03-22T03:36:32;99649.94;;;7.14;86.95
15817;BME280;8009;50.070;8.232;2023-03-22T03:39:03;99653.94;;;7.34;86.47
15817;BME280;8009;50.070;8.232;2023-03-22T03:41:38;99651.78;;;7.26;86.14
15817;BME280;8009;50.070;8.232;2023-03-22T03:44:08;99653.63;;;7.39;85.46
15817;BME280;8009;50.070;8.232;2023-03-22T03:46:37;99645.78;;;7.36;85.36
15817;BME280;8009;50.070;8.232;2023-03-22T03:49:07;99650.63;;;7.43;84.90
15817;BME280;8009;50.070;8.232;2023-03-22T03:51:45;99647.84;;;7.45;84.84
15817;BME280;8009;50.070;8.232;2023-03-22T03:54:15;99643.00;;;7.50;84.29
15817;BME280;8009;50.070;8.232;2023-03-22T03:56:47;99638.75;;;7.60;84.89
15817;BME280;8009;50.070;8.232;2023-03-22T03:59:17;99648.56;;;7.21;85.07
15817;BME280;8009;50.070;8.232;2023-03-22T04:01:46;99641.97;;;6.86;87.75
15817;BME280;8009;50.070;8.232;2023-03-22T04:04:18;99636.59;;;7.13;86.47
15817;BME280;8009;50.070;8.232;2023-03-22T04:06:51;99644.97;;;7.08;86.39
15817;BME280;8009;50.070;8.232;2023-03-22T04:09:21;99640.25;;;7.12;85.76
15817;BME280;8009;50.070;8.232;2023-03-22T04:11:52;99640.25;;;7.12;85.43
15817;BME280;8009;50.070;8.232;2023-03-22T04:14:21;99637.53;;;6.99;86.52
15817;BME280;8009;50.070;8.232;2023-03-22T04:16:50;99636.16;;;7.06;85.15
15817;BME280;8009;50.070;8.232;2023-03-22T04:19:19;99639.47;;;7.09;84.93
15817;BME280;8009;50.070;8.232;2023-03-22T04:21:48;99656.66;;;6.53;87.12
15817;BME280;8009;50.070;8.232;2023-03-22T04:24:18;99641.22;;;6.56;87.40
15817;BME280;8009;50.070;8.232;2023-03-22T04:26:48;99639.63;;;6.25;88.56
15817;BME280;8009;50.070;8.232;2023-03-22T04:29:20;99631.09;;;6.33;88.56
15817;BME280;8009;50.070;8.232;2023-03-22T04:31:49;99625.03;;;6.44;88.86
15817;BME280;8009;50.070;8.232;2023-03-22T04:34:17;99626.16;;;6.13;89.76
15817;BME280;8009;50.070;8.232;2023-03-22T04:36:46;99639.56;;;6.13;89.82
15817;BME280;8009;50.070;8.232;2023-03-22T04:39:15;99631.25;;;6.44;88.97
15817;BME280;8009;50.070;8.232;2023-03-22T04:41:43;99625.31;;;6.53;88.57
15817;BME280;8009;50.070;8.232;2023-03-22T04:44:11;99627.22;;;6.51;88.34
15817;BME280;8009;50.070;8.232;2023-03-22T04:46:42;99632.72;;;6.35;89.48
15817;BME280;8009;50.070;8.232;2023-03-22T04:49:10;99633.41;;;6.25;89.63
15817;BME280;8009;50.070;8.232;2023-03-22T04:51:39;99621.81;;;6.39;89.94
15817;BME280;8009;50.070;8.232;2023-03-22T04:54:07;99625.81;;;6.46;90.27
15817;BME280;8009;50.070;8.232;2023-03-22T04:56:35;99628.81;;;6.68;88.66
15817;BME280;8009;50.070;8.232;2023-03-22T04:59:05;99637.06;;;6.09;91.18
15817;BME280;8009;50.070;8.232;2023-03-22T05:01:35;99635.34;;;5.94;92.55
15817;BME280;8009;50.070;8.232;2023-03-22T05:04:07;99640.50;;;5.97;92.69
15817;BME280;8009;50.070;8.232;2023-03-22T05:06:36;99638.69;;;6.12;91.96
15817;BME280;8009;50.070;8.232;2023-03-22T05:09:04;99637.16;;;6.22;92.20
15817;BME280;8009;50.070;8.232;2023-03-22T05:11:33;99628.81;;;6.13;93.11
15817;BME280;8009;50.070;8.232;2023-03-22T05:14:02;99633.69;;;6.20;92.37
15817;BME280;8009;50.070;8.232;2023-03-22T05:16:30;99628.63;;;6.16;92.10
15817;BME280;8009;50.070;8.232;2023-03-22T05:18:58;99626.53;;;6.62;89.33
15817;BME280;8009;50.070;8.232;2023-03-22T05:21:29;99629.53;;;6.43;89.51
15817;BME280;8009;50.070;8.232;2023-03-22T05:24:01;99631.00;;;6.76;88.24
15817;BME280;8009;50.070;8.232;2023-03-22T05:26:30;99625.56;;;6.63;89.07
15817;BME280;8009;50.070;8.232;2023-03-22T05:29:03;99620.78;;;6.95;87.96
15817;BME280;8009;50.070;8.232;2023-03-22T05:31:31;99623.66;;;6.65;88.39
15817;BME280;8009;50.070;8.232;2023-03-22T05:34:00;99620.47;;;6.73;88.36
15817;BME280;8009;50.070;8.232;2023-03-22T05:36:31;99616.31;;;6.54;88.66
15817;BME280;8009;50.070;8.232;2023-03-22T05:39:01;99623.03;;;6.74;88.41
15817;BME280;8009;50.070;8.232;2023-03-22T05:41:31;99623.53;;;6.40;89.97
15817;BME280;8009;50.070;8.232;2023-03-22T05:44:00;99622.72;;;6.52;88.55
15817;BME280;8009;50.070;8.232;2023-03-22T05:46:28;99613.31;;;6.86;87.49
15817;BME280;8009;50.070;8.232;2023-03-22T05:48:57;99619.00;;;6.81;87.21
15817;BME280;8009;50.070;8.232;2023-03-22T05:51:25;99609.88;;;6.84;87.12
15817;BME280;8009;50.070;8.232;2023-03-22T05:53:56;99615.31;;;7.09;85.80
15817;BME280;8009;50.070;8.232;2023-03-22T05:56:25;99609.94;;;7.09;85.29
15817;BME280;8009;50.070;8.232;2023-03-22T05:58:53;99606.78;;;6.90;85.44
15817;BME280;8009;50.070;8.232;2023-03-22T06:01:22;99602.06;;;6.94;86.15
15817;BME280;8009;50.070;8.232;2023-03-22T06:03:50;99598.47;;;7.07;85.80
15817;BME280;8009;50.070;8.232;2023-03-22T06:06:19;99612.84;;;7.06;85.47
15817;BME280;8009;50.070;8.232;2023-03-22T06:08:48;99618.88;;;7.10;85.17
15817;BME280;8009;50.070;8.232;2023-03-22T06:11:19;99620.25;;;6.49;87.51
15817;BME280;8009;50.070;8.232;2023-03-22T06:13:47;99623.81;;;6.76;87.84
15817;BME280;8009;50.070;8.232;2023-03-22T06:16:16;99623.03;;;6.74;87.97
15817;BME280;8009;50.070;8.232;2023-03-22T06:18:45;99623.75;;;7.18;85.86
15817;BME280;8009;50.070;8.232;2023-03-22T06:21:13;99628.41;;;6.74;88.23
15817;BME280;8009;50.070;8.232;2023-03-22T06:23:41;99637.59;;;7.24;86.83
15817;BME280;8009;50.070;8.232;2023-03-22T06:26:10;99636.88;;;7.35;85.63
15817;BME280;8009;50.070;8.232;2023-03-22T06:28:41;99637.53;;;7.39;85.53
15817;BME280;8009;50.070;8.232;2023-03-22T06:31:09;99636.31;;;7.30;86.74
15817;BME280;8009;50.070;8.232;2023-03-22T06:33:38;99641.50;;;7.46;86.01
15817;BME280;8009;50.070;8.232;2023-03-22T06:36:06;99640.03;;;7.67;84.69
15817;BME280;8009;50.070;8.232;2023-03-22T06:38:35;99639.81;;;7.70;85.11
15817;BME280;8009;50.070;8.232;2023-03-22T06:41:04;99632.06;;;7.66;85.40
15817;BME280;8009;50.070;8.232;2023-03-22T06:43:32;99640.22;;;7.90;84.65
15817;BME280;8009;50.070;8.232;2023-03-22T06:46:04;99641.31;;;8.00;83.88
15817;BME280;8009;50.070;8.232;2023-03-22T06:48:32;99640.66;;;7.96;84.42
15817;BME280;8009;50.070;8.232;2023-03-22T06:51:00;99640.03;;;8.05;84.02
15817;BME280;8009;50.070;8.232;2023-03-22T06:53:29;99642.06;;;8.15;83.95
15817;BME280;8009;50.070;8.232;2023-03-22T06:55:57;99645.81;;;8.12;83.34
15817;BME280;8009;50.070;8.232;2023-03-22T06:58:25;99651.41;;;8.22;83.05
15817;BME280;8009;50.070;8.232;2023-03-22T07:00:54;99649.66;;;8.34;83.06
15817;BME280;8009;50.070;8.232;2023-03-22T07:03:25;99646.03;;;8.22;83.63
15817;BME280;8009;50.070;8.232;2023-03-22T07:05:59;99651.50;;;8.20;84.45
15817;BME280;8009;50.070;8.232;2023-03-22T07:08:28;99652.47;;;8.32;83.48
15817;BME280;8009;50.070;8.232;2023-03-22T07:10:56;99649.78;;;8.45;82.59
15817;BME280;8009;50.070;8.232;2023-03-22T07:13:24;99651.78;;;8.54;81.59
15817;BME280;8009;50.070;8.232;2023-03-22T07:15:54;99651.25;;;8.62;81.11
15817;BME280;8009;50.070;8.232;2023-03-22T07:18:26;99637.34;;;8.68;81.34
15817;BME280;8009;50.070;8.232;2023-03-22T07:20:55;99640.03;;;8.68;81.59
15817;BME280;8009;50.070;8.232;2023-03-22T07:23:23;99641.53;;;8.72;81.06
15817;BME280;8009;50.070;8.232;2023-03-22T07:25:51;99645.91;;;9.10;79.40
15817;BME280;8009;50.070;8.232;2023-03-22T07:28:20;99633.16;;;9.36;78.50
15817;BME280;8009;50.070;8.232;2023-03-22T07:30:49;99632.03;;;9.38;79.11
15817;BME280;8009;50.070;8.232;2023-03-22T07:33:28;99631.75;;;9.54;78.75
15817;BME280;8009;50.070;8.232;2023-03-22T07:35:57;99625.88;;;9.71;78.67
15817;BME280;8009;50.070;8.232;2023-03-22T07:38:25;99627.88;;;9.81;78.61
15817;BME280;8009;50.070;8.232;2023-03-22T07:40:54;99620.97;;;9.76;78.36
15817;BME280;8009;50.070;8.232;2023-03-22T07:43:22;99615.84;;;10.07;78.19
15817;BME280;8009;50.070;8.232;2023-03-22T07:45:51;99612.72;;;10.36;77.11
15817;BME280;8009;50.070;8.232;2023-03-22T07:48:21;99625.59;;;10.32;77.08
15817;BME280;8009;50.070;8.232;2023-03-22T07:50:56;99624.72;;;10.32;77.65
15817;BME280;8009;50.070;8.232;2023-03-22T07:53:24;99619.81;;;10.48;77.19
15817;BME280;8009;50.070;8.232;2023-03-22T07:55:54;99629.88;;;10.57;76.20
15817;BME280;8009;50.070;8.232;2023-03-22T07:58:24;99647.41;;;10.29;78.38
15817;BME280;8009;50.070;8.232;2023-03-22T08:00:53;99638.94;;;10.34;77.86
15817;BME280;8009;50.070;8.232;2023-03-22T08:03:23;99634.25;;;10.24;78.09
15817;BME280;8009;50.070;8.232;2023-03-22T08:05:51;99635.88;;;10.16;78.26
15817;BME280;8009;50.070;8.232;2023-03-22T08:08:25;99634.16;;;10.04;78.88
15817;BME280;8009;50.070;8.232;2023-03-22T08:10:54;99639.13;;;9.74;80.84
15817;BME280;8009;50.070;8.232;2023-03-22T08:13:22;99637.22;;;10.33;79.66
15817;BME280;8009;50.070;8.232;2023-03-22T08:15:50;99637.22;;;10.55;78.36
15817;BME280;8009;50.070;8.232;2023-03-22T08:18:19;99636.59;;;10.63;77.12
15817;BME280;8009;50.070;8.232;2023-03-22T08:20:51;99646.31;;;10.43;77.41
15817;BME280;8009;50.070;8.232;2023-03-22T08:23:21;99629.88;;;10.57;77.04
15817;BME280;8009;50.070;8.232;2023-03-22T08:25:52;99629.97;;;10.67;76.78
15817;BME280;8009;50.070;8.232;2023-03-22T08:28:20;99618.53;;;10.74;76.28
15817;BME280;8009;50.070;8.232;2023-03-22T08:30:50;99613.50;;;10.70;75.91
15817;BME280;8009;50.070;8.232;2023-03-22T08:33:18;99613.72;;;10.78;76.51
15817;BME280;8009;50.070;8.232;2023-03-22T08:35:48;99611.09;;;10.99;76.18
15817;BME280;8009;50.070;8.232;2023-03-22T08:38:16;99598.50;;;10.88;75.93
15817;BME280;8009;50.070;8.232;2023-03-22T08:40:45;99605.84;;;10.86;75.72
15817;BME280;8009;50.070;8.232;2023-03-22T08:43:16;99605.34;;;10.92;76.02
15817;BME280;8009;50.070;8.232;2023-03-22T08:45:45;99600.47;;;11.18;74.87
15817;BME280;8009;50.070;8.232;2023-03-22T08:48:13;99598.22;;;11.23;74.65
15817;BME280;8009;50.070;8.232;2023-03-22T08:50:41;99594.59;;;11.34;74.46
15817;BME280;8009;50.070;8.232;2023-03-22T08:53:10;99598.34;;;10.90;77.45
15817;BME280;8009;50.070;8.232;2023-03-22T08:55:39;99593.91;;;11.00;77.30
15817;BME280;8009;50.070;8.232;2023-03-22T08:58:09;99584.75;;;11.12;76.60
15817;BME280;8009;50.070;8.232;2023-03-22T09:00:41;99587.84;;;11.08;76.55
15817;BME280;8009;50.070;8.232;2023-03-22T09:03:09;99589.53;;;10.88;77.03
15817;BME280;8009;50.070;8.232;2023-03-22T09:05:37;99584.31;;;11.28;76.36
15817;BME280;8009;50.070;8.232;2023-03-22T09:08:06;99573.75;;;11.25;76.40
15817;BME280;8009;50.070;8.232;2023-03-22T09:10:37;99569.47;;;11.64;74.90
15817;BME280;8009;50.070;8.232;2023-03-22T09:13:06;99566.97;;;11.73;74.76
15817;BME280;8009;50.070;8.232;2023-03-22T09:15:34;99566.84;;;11.95;73.79
15817;BME280;8009;50.070;8.232;2023-03-22T09:18:05;99557.84;;;12.25;72.66
15817;BME280;8009;50.070;8.232;2023-03-22T09:20:33;99565.84;;;12.36;73.86
15817;BME280;8009;50.070;8.232;2023-03-22T09:23:02;99560.66;;;12.14;74.12
15817;BME280;8009;50.070;8.232;2023-03-22T09:25:31;99561.53;;;11.93;75.02
15817;BME280;8009;50.070;8.232;2023-03-22T09:27:59;99551.16;;;12.39;72.94
15817;BME280;8009;50.070;8.232;2023-03-22T09:30:28;99548.72;;;12.26;73.61
15817;BME280;8009;50.070;8.232;2023-03-22T09:32:57;99540.16;;;12.31;72.85
15817;BME280;8009;50.070;8.232;2023-03-22T09:35:28;99539.47;;;12.29;73.14
15817;BME280;8009;50.070;8.232;2023-03-22T09:37:56;99536.22;;;11.94;74.28
15817;BME280;8009;50.070;8.232;2023-03-22T09:40:29;99536.31;;;12.24;72.73
15817;BME280;8009;50.070;8.232;2023-03-22T09:43:01;99539.06;;;12.43;72.60
15817;BME280;8009;50.070;8.232;2023-03-22T09:45:33;99538.94;;;12.54;72.48
15817;BME280;8009;50.070;8.232;2023-03-22T09:48:05;99543.19;;;12.47;71.66
15817;BME280;8009;50.070;8.232;2023-03-22T09:50:45;99532.09;;;12.50;71.40
15817;BME280;8009;50.070;8.232;2023-03-22T09:53:16;99533.53;;;12.74;71.80
15817;BME280;8009;50.070;8.232;2023-03-22T09:55:48;99535.50;;;12.33;72.59
15817;BME280;8009;50.070;8.232;2023-03-22T09:58:23;99522.31;;;12.78;70.64
15817;BME280;8009;50.070;8.232;2023-03-22T10:00:56;99523.72;;;12.92;70.19
15817;BME280;8009;50.070;8.232;2023-03-22T10:03:54;99517.84;;;13.16;69.12
15817;BME280;8009;50.070;8.232;2023-03-22T10:06:28;99517.16;;;13.14;69.69
15817;BME280;8009;50.070;8.232;2023-03-22T10:09:03;99503.19;;;13.09;69.66
15817;BME280;8009;50.070;8.232;2023-03-22T10:11:41;99506.03;;;13.27;69.27
15817;BME280;8009;50.070;8.232;2023-03-22T10:14:23;99504.13;;;13.47;69.14
15817;BME280;8009;50.070;8.232;2023-03-22T10:16:56;99511.63;;;13.25;69.80
15817;BME280;8009;50.070;8.232;2023-03-22T10:19:31;99507.88;;;13.26;67.58
15817;BME280;8009;50.070;8.232;2023-03-22T10:22:03;99510.03;;;13.03;68.68
15817;BME280;8009;50.070;8.232;2023-03-22T10:24:35;99504.00;;;13.19;68.18
15817;BME280;8009;50.070;8.232;2023-03-22T10:27:14;99502.59;;;13.15;67.63
15817;BME280;8009;50.070;8.232;2023-03-22T10:29:46;99502.31;;;13.37;67.37
15817;BME280;8009;50.070;8.232;2023-03-22T10:32:17;99495.31;;;13.35;67.57
15817;BME280;8009;50.070;8.232;2023-03-22T10:34:46;99499.94;;;13.62;66.33
15817;BME280;8009;50.070;8.232;2023-03-22T10:37:20;99496.38;;;13.61;66.35
15817;BME280;8009;50.070;8.232;2023-03-22T10:39:52;99501.00;;;13.51;66.62
15817;BME280;8009;50.070;8.232;2023-03-22T10:42:27;99497.72;;;13.85;65.87
15817;BME280;8009;50.070;8.232;2023-03-22T10:45:00;99491.31;;;13.86;64.80
15817;BME280;8009;50.070;8.232;2023-03-22T10:47:32;99487.78;;;13.76;64.83
15817;BME280;8009;50.070;8.232;2023-03-22T10:50:10;99509.13;;;13.51;65.99
15817;BME280;8009;50.070;8.232;2023-03-22T10:52:47;99498.44;;;13.87;65.76
15817;BME280;8009;50.070;8.232;2023-03-22T10:55:18;99494.97;;;13.95;66.07
15817;BME280;8009;50.070;8.232;2023-03-22T10:57:55;99490.94;;;14.26;64.35
15817;BME280;8009;50.070;8.232;2023-03-22T11:00:27;99488.97;;;14.01;63.10
15817;BME280;8009;50.070;8.232;2023-03-22T11:02:58;99489.00;;;13.91;64.48
15817;BME280;8009;50.070;8.232;2023-03-22T11:05:28;99482.16;;;13.87;63.80
15817;BME280;8009;50.070;8.232;2023-03-22T11:08:01;99481.69;;;13.92;63.84
15817;BME280;8009;50.070;8.232;2023-03-22T11:10:32;99486.47;;;13.80;63.45
15817;BME280;8009;50.070;8.232;2023-03-22T11:13:15;99488.31;;;13.89;62.53
15817;BME280;8009;50.070;8.232;2023-03-22T11:15:51;99482.50;;;14.02;62.04
15817;BME280;8009;50.070;8.232;2023-03-22T11:18:20;99477.09;;;14.02;62.20
15817;BME280;8009;50.070;8.232;2023-03-22T11:20:56;99473.50;;;14.29;60.65
15817;BME280;8009;50.070;8.232;2023-03-22T11:23:30;99470.09;;;14.45;60.33
15817;BME280;8009;50.070;8.232;2023-03-22T11:26:06;99473.19;;;14.59;58.08
15817;BME280;8009;50.070;8.232;2023-03-22T11:28:41;99468.69;;;14.50;57.65
15817;BME280;8009;50.070;8.232;2023-03-22T11:31:11;99467.91;;;14.58;59.70
15817;BME280;8009;50.070;8.232;2023-03-22T11:33:53;99462.53;;;14.21;58.53
15817;BME280;8009;50.070;8.232;2023-03-22T11:36:22;99465.53;;;14.27;60.23
15817;BME280;8009;50.070;8.232;2023-03-22T11:39:02;99454.16;;;14.14;59.29
15817;BME280;8009;50.070;8.232;2023-03-22T11:41:35;99452.94;;;14.44;58.46
15817;BME280;8009;50.070;8.232;2023-03-22T11:44:11;99461.81;;;14.46;59.40
15817;BME280;8009;50.070;8.232;2023-03-22T11:46:48;99448.50;;;14.25;59.33
15817;BME280;8009;50.070;8.232;2023-03-22T11:49:19;99451.81;;;14.47;58.57
15817;BME280;8009;50.070;8.232;2023-03-22T11:51:52;99442.91;;;14.54;58.84
15817;BME280;8009;50.070;8.232;2023-03-22T11:54:28;99435.88;;;14.87;57.43
15817;BME280;8009;50.070;8.232;2023-03-22T11:56:59;99438.28;;;14.91;55.64
15817;BME280;8009;50.070;8.232;2023-03-22T11:59:35;99438.94;;;15.10;54.29
15817;BME280;8009;50.070;8.232;2023-03-22T12:02:16;99441.59;;;15.20;55.00
15817;BME280;8009;50.070;8.232;2023-03-22T12:04:47;99434.38;;;15.37;55.13
15817;BME280;8009;50.070;8.232;2023-03-22T12:07:19;99433.38;;;15.38;54.55
15817;BME280;8009;50.070;8.232;2023-03-22T12:09:53;99437.84;;;14.77;56.07
15817;BME280;8009;50.070;8.232;2023-03-22T12:12:26;99430.09;;;14.65;57.65
15817;BME280;8009;50.070;8.232;2023-03-22T12:15:01;99427.91;;;14.68;57.71
15817;BME280;8009;50.070;8.232;2023-03-22T12:17:36;99428.22;;;14.65;56.78
15817;BME280;8009;50.070;8.232;2023-03-22T12:20:16;99423.69;;;14.92;55.97
15817;BME280;8009;50.070;8.232;2023-03-22T12:22:48;99423.78;;;14.82;56.39
15817;BME280;8009;50.070;8.232;2023-03-22T12:25:24;99420.69;;;14.59;55.07
15817;BME280;8009;50.070;8.232;2023-03-22T12:27:55;99420.81;;;14.22;56.91
15817;BME280;8009;50.070;8.232;2023-03-22T12:30:27;99409.53;;;14.62;57.03
15817;BME280;8009;50.070;8.232;2023-03-22T12:33:00;99406.41;;;14.39;56.19
15817;BME280;8009;50.070;8.232;2023-03-22T12:35:33;99417.66;;;14.80;55.00
15817;BME280;8009;50.070;8.232;2023-03-22T12:38:12;99405.00;;;14.89;55.34
15817;BME280;8009;50.070;8.232;2023-03-22T12:40:49;99400.66;;;15.30;52.77
15817;BME280;8009;50.070;8.232;2023-03-22T12:43:30;99399.03;;;15.11;52.01
15817;BME280;8009;50.070;8.232;2023-03-22T12:46:03;99400.00;;;15.28;52.30
15817;BME280;8009;50.070;8.232;2023-03-22T12:48:35;99401.41;;;15.14;54.45
15817;BME280;8009;50.070;8.232;2023-03-22T12:51:06;99399.31;;;15.00;53.99
15817;BME280;8009;50.070;8.232;2023-03-22T12:53:38;99381.88;;;14.84;54.66
15817;BME280;8009;50.070;8.232;2023-03-22T12:56:15;99383.44;;;14.69;54.83
15817;BME280;8009;50.070;8.232;2023-03-22T12:58:47;99383.25;;;14.89;56.68
15817;BME280;8009;50.070;8.232;2023-03-22T13:01:22;99382.75;;;14.49;55.76
15817;BME280;8009;50.070;8.232;2023-03-22T13:03:55;99383.59;;;14.50;57.20
15817;BME280;8009;50.070;8.232;2023-03-22T13:06:31;99376.34;;;14.76;54.64
15817;BME280;8009;50.070;8.232;2023-03-22T13:09:14;99370.28;;;14.82;53.41
15817;BME280;8009;50.070;8.232;2023-03-22T13:12:24;99376.44;;;14.84;53.81
15817;BME280;8009;50.070;8.232;2023-03-22T13:14:55;99369.69;;;14.53;55.48
15817;BME280;8009;50.070;8.232;2023-03-22T13:17:42;99363.72;;;14.49;54.34
15817;BME280;8009;50.070;8.232;2023-03-22T13:20:23;99373.47;;;14.78;53.38
15817;BME280;8009;50.070;8.232;2023-03-22T13:23:25;99356.25;;;15.21;52.62
15817;BME280;8009;50.070;8.232;2023-03-22T13:25:59;99361.81;;;14.85;53.43
15817;BME280;8009;50.070;8.232;2023-03-22T13:28:31;99365.47;;;14.76;54.92
15817;BME280;8009;50.070;8.232;2023-03-22T13:31:03;99357.81;;;14.72;55.37
15817;BME280;8009;50.070;8.232;2023-03-22T13:33:33;99360.94;;;14.59;54.84
15817;BME280;8009;50.070;8.232;2023-03-22T13:36:06;99357.31;;;14.76;54.55
15817;BME280;8009;50.070;8.232;2023-03-22T13:38:53;99351.75;;;15.04;54.14
15817;BME280;8009;50.070;8.232;2023-03-22T13:41:26;99342.34;;;14.98;53.00
15817;BME280;8009;50.070;8.232;2023-03-22T13:43:59;99341.50;;;14.98;53.13
15817;BME280;8009;50.070;8.232;2023-03-22T13:46:43;99340.78;;;15.22;52.65